Time;durP1;ratioP1;P1;durP2;ratioP2;P2;SDS_P1;SDS_P2;PMS_P1;PMS_P2;Temp;Humidity;BMP_temperature;BMP_pressure;BME280_temperature;BME280_humidity;BME280_pressure;Samples;Min_cycle;Max_cycle;Signal;HPM_P1;HPM_P2
2024/03/03 00:01:58;;;;;;;;;0.00;0.00;;;;;-145.09;100.00;59365.97;6317504;22;8753;-85
2024/03/03 00:04:26;;;;;;;;;0.00;0.00;;;;;-145.09;100.00;59365.97;6317695;22;8757;-85
2024/03/03 00:06:51;;;;;;;;;0.00;0.00;;;;;-145.09;100.00;59365.97;6263699;22;8819;-85
2024/03/03 00:09:24;;;;;;;;;0.00;0.00;;;;;-145.09;100.00;59365.97;6315775;22;8796;-85
2024/03/03 00:11:52;;;;;;;;;0.00;0.00;;;;;-145.09;100.00;59365.97;6318108;22;8701;-85
2024/03/03 00:14:18;;;;;;;;;0.00;0.00;;;;;-145.09;100.00;59365.97;6317547;22;8755;-85
2024/03/03 00:16:50;;;;;;;;;0.00;0.00;;;;;-145.09;100.00;59365.97;6317146;22;9416;-85
2024/03/03 00:19:16;;;;;;;;;0.00;0.00;;;;;-145.09;100.00;59365.97;6291900;22;8754;-84
2024/03/03 00:21:44;;;;;;;;;1.00;1.00;;;;;-145.09;100.00;59365.97;6289989;22;8776;-85
2024/03/03 00:24:11;;;;;;;;;0.00;0.00;;;;;-145.09;100.00;59365.97;6318091;22;8779;-85
2024/03/03 00:26:37;;;;;;;;;0.00;0.00;;;;;-145.09;100.00;59365.97;6290198;22;8749;-85
2024/03/03 00:29:04;;;;;;;;;0.00;0.00;;;;;-145.09;100.00;59365.97;6289792;22;14771;-84
2024/03/03 00:31:33;;;;;;;;;0.00;0.00;;;;;-145.09;100.00;59365.97;6316945;22;10491;-84
2024/03/03 00:33:58;;;;;;;;;0.00;0.00;;;;;-145.09;100.00;59365.97;6318718;22;8737;-84
2024/03/03 00:36:24;;;;;;;;;0.00;0.00;;;;;-145.09;100.00;59365.97;6291024;22;8879;-84
2024/03/03 00:38:49;;;;;;;;;0.00;0.00;;;;;-145.09;100.00;59365.97;6318947;22;8757;-85
2024/03/03 00:41:15;;;;;;;;;0.00;0.00;;;;;-145.09;100.00;59365.97;6318687;22;8776;-84
2024/03/03 00:43:40;;;;;;;;;0.00;0.00;;;;;-145.09;100.00;59365.97;6318801;22;8863;-84
2024/03/03 00:46:06;;;;;;;;;0.00;0.00;;;;;-145.09;100.00;59365.97;6318346;22;8764;-84
2024/03/03 00:48:34;;;;;;;;;0.00;0.00;;;;;-145.09;100.00;59365.97;6291623;22;8760;-85
2024/03/03 00:51:00;;;;;;;;;0.00;0.00;;;;;-145.09;100.00;59365.97;6290800;22;8776;-84
2024/03/03 00:53:25;;;;;;;;;7.00;7.00;;;;;-145.09;100.00;59365.97;6319262;22;8741;-84
2024/03/03 00:55:51;;;;;;;;;0.00;0.00;;;;;-145.09;100.00;59365.97;6291749;22;8875;-84
2024/03/03 00:58:19;;;;;;;;;0.00;0.00;;;;;-145.09;100.00;59365.97;6291462;22;8760;-85
2024/03/03 01:00:45;;;;;;;;;0.00;0.00;;;;;-145.09;100.00;59365.97;6317975;22;8826;-85
2024/03/03 01:03:15;;;;;;;;;0.00;0.00;;;;;-145.09;100.00;59365.97;6290648;22;8769;-85
2024/03/03 01:05:40;;;;;;;;;0.00;0.00;;;;;-145.09;100.00;59365.97;6318683;22;9490;-85
2024/03/03 01:08:06;;;;;;;;;1.00;1.00;;;;;-145.09;100.00;59365.97;6317415;22;8800;-85
2024/03/03 01:10:31;;;;;;;;;0.00;0.00;;;;;-145.09;100.00;59365.97;6316875;22;8819;-86
2024/03/03 01:12:57;;;;;;;;;0.00;0.00;;;;;-145.09;100.00;59365.97;6316646;22;8798;-86
2024/03/03 01:15:22;;;;;;;;;0.00;0.00;;;;;-145.09;100.00;59365.97;6291324;22;8847;-85
2024/03/03 01:17:50;;;;;;;;;0.00;0.00;;;;;-145.09;100.00;59365.97;6291238;22;8789;-84
2024/03/03 01:20:27;;;;;;;;;0.00;0.00;;;;;-145.09;100.00;59365.97;6318343;22;9526;-86
2024/03/03 01:23:10;;;;;;;;;;;;;;;;;;;;;
2024/03/03 01:25:43;;;;;;;;;0.00;0.00;;;;;-145.09;100.00;59365.97;6292923;22;36903;-86
2024/03/03 01:28:11;;;;;;;;;0.00;0.00;;;;;-145.09;100.00;59365.97;6291247;22;8826;-86
2024/03/03 01:30:36;;;;;;;;;0.00;0.00;;;;;-145.09;100.00;59365.97;6291067;22;8760;-86
2024/03/03 01:33:09;;;;;;;;;0.00;0.00;;;;;-145.09;100.00;59365.97;6319420;22;8819;-86
2024/03/03 01:35:48;;;;;;;;;1.00;1.00;;;;;-145.09;100.00;59365.97;6290025;22;8737;-87
2024/03/03 01:38:32;;;;;;;;;0.00;0.00;;;;;-145.09;100.00;59365.97;6293301;22;8768;-86
2024/03/03 01:41:10;;;;;;;;;;;;;;;;;;;;;
2024/03/03 01:43:49;;;;;;;;;;;;;;;;;;;;;
2024/03/03 01:46:39;;;;;;;;;0.00;0.00;;;;;-145.09;100.00;59365.97;6315957;22;37827;-86
2024/03/03 01:49:17;;;;;;;;;0.00;0.00;;;;;-145.09;100.00;59365.97;6290936;22;8872;-85
2024/03/03 01:52:08;;;;;;;;;0.00;0.00;;;;;-145.09;100.00;59365.97;6291859;22;8776;-86
2024/03/03 01:54:51;;;;;;;;;0.00;0.00;;;;;-145.09;100.00;59365.97;6294483;22;8867;-86
2024/03/03 01:57:19;;;;;;;;;0.00;0.00;;;;;-145.09;100.00;59365.97;6292925;22;8737;-86
2024/03/03 01:59:49;;;;;;;;;0.00;0.00;;;;;-145.09;100.00;59365.97;6290893;22;8757;-86
2024/03/03 02:03:08;;;;;;;;;0.00;0.00;;;;;-145.09;100.00;59365.97;6317014;22;8757;-87
2024/03/03 02:05:38;;;;;;;;;;;;;;;;;;;;;
2024/03/03 02:08:07;;;;;;;;;0.00;0.00;;;;;-145.09;100.00;59365.97;6289036;22;37142;-87
2024/03/03 02:10:42;;;;;;;;;0.00;0.00;;;;;-145.09;100.00;59365.97;6289854;22;9544;-86
2024/03/03 02:13:07;;;;;;;;;0.00;0.00;;;;;-145.09;100.00;59365.97;6290640;22;8769;-86
2024/03/03 02:15:35;;;;;;;;;4.00;4.00;;;;;-145.09;100.00;59365.97;6265584;22;8760;-86
2024/03/03 02:18:07;;;;;;;;;0.00;0.00;;;;;-145.09;100.00;59365.97;6290974;22;8787;-86
2024/03/03 02:20:39;;;;;;;;;0.00;0.00;;;;;-145.09;100.00;59365.97;6291287;22;8780;-86
2024/03/03 02:23:09;;;;;;;;;0.00;0.00;;;;;-145.09;100.00;59365.97;6293236;22;8733;-86
2024/03/03 02:25:39;;;;;;;;;0.00;0.00;;;;;-145.09;100.00;59365.97;6290262;22;8756;-86
2024/03/03 02:28:15;;;;;;;;;0.00;0.00;;;;;-145.09;100.00;59365.97;6292271;22;8767;-84
2024/03/03 02:33:36;;;;;;;;;0.00;0.00;;;;;-145.09;100.00;59365.97;6295428;22;9480;-86
2024/03/03 02:36:33;;;;;;;;;;;;;;;;;;;;;
2024/03/03 02:38:51;;;;;;;;;0.00;0.00;;;;;-145.09;100.00;59365.97;6310150;22;8765;-86
2024/03/03 02:41:36;;;;;;;;;;;;;;;;;;;;;
2024/03/03 02:44:35;;;;;;;;;0.00;0.00;;;;;-145.09;100.00;59365.97;6317728;22;36936;-86
2024/03/03 02:47:36;;;;;;;;;;;;;;;;;;;;;
2024/03/03 02:50:06;;;;;;;;;;;;;;;;;;;;;
2024/03/03 02:52:52;;;;;;;;;0.00;0.00;;;;;-145.09;100.00;59365.97;6288093;22;36592;-86
2024/03/03 02:55:24;;;;;;;;;0.00;0.00;;;;;-145.09;100.00;59365.97;6264583;22;8772;-85
2024/03/03 02:57:57;;;;;;;;;0.00;0.00;;;;;-145.09;100.00;59365.97;6292688;22;8776;-86
2024/03/03 03:00:41;;;;;;;;;;;;;;;;;;;;;
2024/03/03 03:03:19;;;;;;;;;0.00;0.00;;;;;-145.09;100.00;59365.97;6292791;22;35935;-86
2024/03/03 03:06:15;;;;;;;;;;;;;;;;;;;;;
2024/03/03 03:09:10;;;;;;;;;;;;;;;;;;;;;
2024/03/03 03:11:46;;;;;;;;;0.00;0.00;;;;;-145.09;100.00;59365.97;6291802;22;36871;-86
2024/03/03 03:14:19;;;;;;;;;0.00;0.00;;;;;-145.09;100.00;59365.97;6318256;22;8737;-86
2024/03/03 03:16:52;;;;;;;;;0.00;0.00;;;;;-145.09;100.00;59365.97;6267143;22;8745;-86
2024/03/03 03:19:19;;;;;;;;;0.00;0.00;;;;;-145.09;100.00;59365.97;6318590;22;8756;-86
2024/03/03 03:21:48;;;;;;;;;0.00;0.00;;;;;-145.09;100.00;59365.97;6291734;22;8737;-87
2024/03/03 03:24:26;;;;;;;;;;;;;;;;;;;;;
2024/03/03 03:27:13;;;;;;;;;0.00;0.00;;;;;-145.09;100.00;59365.97;6291168;22;37185;-87
2024/03/03 03:29:53;;;;;;;;;;;;;;;;;;;;;
2024/03/03 03:32:25;;;;;;;;;0.00;0.00;;;;;-145.09;100.00;59365.97;6289322;22;8772;-86
2024/03/03 03:34:55;;;;;;;;;0.00;0.00;;;;;-145.09;100.00;59365.97;6265827;22;8869;-86
2024/03/03 03:37:38;;;;;;;;;0.00;0.00;;;;;-145.09;100.00;59365.97;6291610;22;8757;-86
2024/03/03 03:40:31;;;;;;;;;;;;;;;;;;;;;
2024/03/03 03:43:04;;;;;;;;;0.00;0.00;;;;;-145.09;100.00;59365.97;6292380;22;36069;-86
2024/03/03 03:45:31;;;;;;;;;6.00;6.00;;;;;-145.09;100.00;59365.97;6265878;22;8771;-86
2024/03/03 03:47:59;;;;;;;;;0.00;0.00;;;;;-145.09;100.00;59365.97;6318538;22;8787;-86
2024/03/03 03:50:24;;;;;;;;;0.00;0.00;;;;;-145.09;100.00;59365.97;6291288;22;8749;-86
2024/03/03 03:52:52;;;;;;;;;0.00;0.00;;;;;-145.09;100.00;59365.97;6318114;22;8792;-86
2024/03/03 03:55:18;;;;;;;;;0.00;0.00;;;;;-145.09;100.00;59365.97;6291345;22;8819;-86
2024/03/03 03:57:43;;;;;;;;;0.00;0.00;;;;;-145.09;100.00;59365.97;6291108;22;8748;-86
2024/03/03 04:00:10;;;;;;;;;0.00;0.00;;;;;-145.09;100.00;59365.97;6290672;22;8777;-87
2024/03/03 04:02:38;;;;;;;;;0.00;0.00;;;;;-145.09;100.00;59365.97;6290241;22;8859;-86
2024/03/03 04:05:09;;;;;;;;;0.00;0.00;;;;;-145.09;100.00;59365.97;6318186;22;8757;-86
2024/03/03 04:07:34;;;;;;;;;0.00;0.00;;;;;-145.09;100.00;59365.97;6318253;22;8757;-86
2024/03/03 04:10:02;;;;;;;;;0.00;0.00;;;;;-145.09;100.00;59365.97;6291730;22;8910;-86
2024/03/03 04:12:30;;;;;;;;;0.00;0.00;;;;;-145.09;100.00;59365.97;6266586;22;8733;-85
2024/03/03 04:14:58;;;;;;;;;0.00;0.00;;;;;-145.09;100.00;59365.97;6293199;22;8749;-86
2024/03/03 04:17:23;;;;;;;;;0.00;0.00;;;;;-145.09;100.00;59365.97;6291224;22;8828;-86
2024/03/03 04:19:51;;;;;;;;;0.00;0.00;;;;;-145.09;100.00;59365.97;6291847;22;13150;-86
2024/03/03 04:22:16;;;;;;;;;0.00;0.00;;;;;-145.09;100.00;59365.97;6292374;22;8753;-86
2024/03/03 04:24:42;;;;;;;;;0.00;0.00;;;;;-145.09;100.00;59365.97;6319297;22;8776;-86
2024/03/03 04:27:07;;;;;;;;;0.00;0.00;;;;;-145.09;100.00;59365.97;6319454;22;8772;-86
2024/03/03 04:29:33;;;;;;;;;0.00;0.00;;;;;-145.09;100.00;59365.97;6291437;22;9514;-86
2024/03/03 04:32:03;;;;;;;;;0.00;0.00;;;;;-145.09;100.00;59365.97;6291887;22;9585;-86
2024/03/03 04:34:39;;;;;;;;;0.00;0.00;;;;;-145.09;100.00;59365.97;6318744;22;8778;-86
2024/03/03 04:37:06;;;;;;;;;0.00;0.00;;;;;-145.09;100.00;59365.97;6318521;22;8757;-86
2024/03/03 04:39:32;;;;;;;;;0.00;0.00;;;;;-145.09;100.00;59365.97;6291789;22;8757;-86
2024/03/03 04:42:02;;;;;;;;;0.00;0.00;;;;;-145.09;100.00;59365.97;6319074;22;8756;-86
2024/03/03 04:44:30;;;;;;;;;0.00;0.00;;;;;-145.09;100.00;59365.97;6291766;22;8756;-86
2024/03/03 04:46:56;;;;;;;;;0.00;0.00;;;;;-145.09;100.00;59365.97;6292137;22;8830;-85
2024/03/03 04:49:23;;;;;;;;;0.00;0.00;;;;;-145.09;100.00;59365.97;6290695;22;8745;-85
2024/03/03 04:51:48;;;;;;;;;6.00;6.00;;;;;-145.09;100.00;59365.97;6318077;22;8760;-85
2024/03/03 04:54:16;;;;;;;;;0.00;0.00;;;;;-145.09;100.00;59365.97;6318678;22;9544;-85
2024/03/03 04:56:44;;;;;;;;;0.00;0.00;;;;;-145.09;100.00;59365.97;6318948;22;8749;-85
2024/03/03 04:59:10;;;;;;;;;0.00;0.00;;;;;-145.09;100.00;59365.97;6292493;22;8787;-86
2024/03/03 05:01:40;;;;;;;;;0.00;0.00;;;;;-145.09;100.00;59365.97;6318205;22;8760;-83
2024/03/03 05:04:05;;;;;;;;;0.00;0.00;;;;;-145.09;100.00;59365.97;6318838;22;8775;-84
2024/03/03 05:06:31;;;;;;;;;0.00;0.00;;;;;-145.09;100.00;59365.97;6318297;22;8757;-85
2024/03/03 05:08:56;;;;;;;;;0.00;0.00;;;;;-145.09;100.00;59365.97;6290986;22;8768;-85
2024/03/03 05:11:23;;;;;;;;;3.25;3.25;;;;;-145.09;100.00;59365.97;6291232;22;9593;-84
2024/03/03 05:13:48;;;;;;;;;0.00;0.00;;;;;-145.09;100.00;59365.97;6318763;22;8761;-85
2024/03/03 05:16:14;;;;;;;;;0.00;0.00;;;;;-145.09;100.00;59365.97;6291625;22;8764;-84
2024/03/03 05:18:40;;;;;;;;;0.00;0.00;;;;;-145.09;100.00;59365.97;6318056;22;8772;-85
2024/03/03 05:21:06;;;;;;;;;0.00;0.00;;;;;-145.09;100.00;59365.97;6290653;22;8763;-85
2024/03/03 05:23:31;;;;;;;;;0.00;0.00;;;;;-145.09;100.00;59365.97;6291079;22;8769;-85
2024/03/03 05:25:59;;;;;;;;;0.00;0.00;;;;;-145.09;100.00;59365.97;6291093;22;8768;-85
2024/03/03 05:28:25;;;;;;;;;0.00;0.00;;;;;-145.09;100.00;59365.97;6318498;22;8780;-85
2024/03/03 05:30:51;;;;;;;;;13.75;13.75;;;;;-145.09;100.00;59365.97;6265121;22;8772;-86
2024/03/03 05:33:17;;;;;;;;;0.00;0.00;;;;;-145.09;100.00;59365.97;6318713;22;8847;-86
2024/03/03 05:35:42;;;;;;;;;0.00;0.00;;;;;-145.09;100.00;59365.97;6316411;22;8794;-85
2024/03/03 05:38:08;;;;;;;;;0.00;0.00;;;;;-145.09;100.00;59365.97;6291115;22;8781;-85
2024/03/03 05:40:33;;;;;;;;;0.00;0.00;;;;;-145.09;100.00;59365.97;6316978;22;8776;-85
2024/03/03 05:43:03;;;;;;;;;0.00;0.00;;;;;-145.09;100.00;59365.97;6291028;22;8776;-85
2024/03/03 05:45:28;;;;;;;;;0.00;0.00;;;;;-145.09;100.00;59365.97;6318594;22;9463;-84
2024/03/03 05:47:54;;;;;;;;;3.00;3.00;;;;;-145.09;100.00;59365.97;6319024;22;8769;-85
2024/03/03 05:50:22;;;;;;;;;0.00;0.00;;;;;-145.09;100.00;59365.97;6290213;22;8775;-85
2024/03/03 05:52:47;;;;;;;;;0.00;0.00;;;;;-145.09;100.00;59365.97;6292274;22;8749;-84
2024/03/03 05:55:15;;;;;;;;;0.00;0.00;;;;;-145.09;100.00;59365.97;6291002;22;8788;-84
2024/03/03 05:57:43;;;;;;;;;0.00;0.00;;;;;-145.09;100.00;59365.97;6318929;22;8769;-85
2024/03/03 06:00:11;;;;;;;;;0.00;0.00;;;;;-145.09;100.00;59365.97;6291292;22;8745;-85
2024/03/03 06:02:37;;;;;;;;;0.00;0.00;;;;;-145.09;100.00;59365.97;6318451;22;8756;-85
2024/03/03 06:05:05;;;;;;;;;15.75;15.75;;;;;-145.09;100.00;59365.97;6290452;22;8811;-84
2024/03/03 06:07:31;;;;;;;;;0.00;0.00;;;;;-145.09;100.00;59365.97;6317689;22;8753;-85
2024/03/03 06:09:59;;;;;;;;;0.00;0.00;;;;;-145.09;100.00;59365.97;6291523;22;8812;-86
2024/03/03 06:12:44;;;;;;;;;;;;;;;;;;;;;
2024/03/03 06:15:19;;;;;;;;;0.00;0.00;;;;;-145.09;100.00;59365.97;6315598;22;36000;-86
2024/03/03 06:18:03;;;;;;;;;0.00;0.00;;;;;-145.09;100.00;59365.97;6290675;22;8753;-86
2024/03/03 06:20:36;;;;;;;;;0.00;0.00;;;;;-145.09;100.00;59365.97;6268611;22;9526;-84
2024/03/03 06:23:02;;;;;;;;;0.00;0.00;;;;;-145.09;100.00;59365.97;6292261;22;8756;-86
2024/03/03 06:25:40;;;;;;;;;0.00;0.00;;;;;-145.09;100.00;59365.97;6290706;22;8756;-86
2024/03/03 06:28:05;;;;;;;;;0.00;0.00;;;;;-145.09;100.00;59365.97;6291813;22;8779;-85
2024/03/03 06:30:31;;;;;;;;;0.00;0.00;;;;;-145.09;100.00;59365.97;6318375;22;9490;-85
2024/03/03 06:32:56;;;;;;;;;0.00;0.00;;;;;-145.09;100.00;59365.97;6290088;22;8772;-85
2024/03/03 06:35:26;;;;;;;;;0.00;0.00;;;;;-145.09;100.00;59365.97;6291508;22;8777;-86
2024/03/03 06:38:00;;;;;;;;;0.00;0.00;;;;;-145.09;100.00;59365.97;6291438;22;8756;-85
2024/03/03 06:40:27;;;;;;;;;0.00;0.00;;;;;-145.09;100.00;59365.97;6318374;22;8737;-85
2024/03/03 06:42:53;;;;;;;;;0.00;0.00;;;;;-145.09;100.00;59365.97;6318736;22;8753;-83
2024/03/03 06:45:18;;;;;;;;;0.00;0.00;;;;;-145.09;100.00;59365.97;6290662;22;8773;-84
2024/03/03 06:47:43;;;;;;;;;4.50;4.50;;;;;-145.09;100.00;59365.97;6316775;22;8780;-81
2024/03/03 06:50:09;;;;;;;;;0.00;0.00;;;;;-145.09;100.00;59365.97;6317306;22;34924;-82
2024/03/03 06:52:34;;;;;;;;;0.00;0.00;;;;;-145.09;100.00;59365.97;6288678;22;36021;-82
2024/03/03 06:55:00;;;;;;;;;0.00;0.00;;;;;-145.09;100.00;59365.97;6290535;22;8756;-81
2024/03/03 06:57:26;;;;;;;;;0.00;0.00;;;;;-145.09;100.00;59365.97;6290547;22;8792;-83
2024/03/03 06:59:52;;;;;;;;;0.00;0.00;;;;;-145.09;100.00;59365.97;6318737;22;8745;-83
2024/03/03 07:02:18;;;;;;;;;0.00;0.00;;;;;-145.09;100.00;59365.97;6289353;22;8865;-82
2024/03/03 07:04:44;;;;;;;;;0.00;0.00;;;;;-145.09;100.00;59365.97;6263914;22;8768;-83
2024/03/03 07:07:09;;;;;;;;;4.00;4.00;;;;;-145.09;100.00;59365.97;6317068;22;32598;-85
2024/03/03 07:09:36;;;;;;;;;0.00;0.00;;;;;-145.09;100.00;59365.97;6290008;22;24307;-84
2024/03/03 07:12:03;;;;;;;;;0.00;0.00;;;;;-145.09;100.00;59365.97;6317535;22;8764;-81
2024/03/03 07:14:29;;;;;;;;;0.00;0.00;;;;;-145.09;100.00;59365.97;6316735;22;8775;-81
2024/03/03 07:16:55;;;;;;;;;0.00;0.00;;;;;-145.09;100.00;59365.97;6314701;22;8766;-83
2024/03/03 07:19:20;;;;;;;;;0.00;0.00;;;;;-145.09;100.00;59365.97;6317367;22;8792;-83
2024/03/03 07:21:45;;;;;;;;;0.00;0.00;;;;;-145.09;100.00;59365.97;6289652;22;8772;-82
2024/03/03 07:24:11;;;;;;;;;0.00;0.00;;;;;-145.09;100.00;59365.97;6316472;22;34649;-83
2024/03/03 07:26:37;;;;;;;;;0.00;0.00;;;;;-145.09;100.00;59365.97;6317152;22;20172;-83
2024/03/03 07:29:03;;;;;;;;;0.00;0.00;;;;;-145.09;100.00;59365.97;6317264;22;8761;-82
2024/03/03 07:31:31;;;;;;;;;0.00;0.00;;;;;-145.09;100.00;59365.97;6316903;22;8859;-81
2024/03/03 07:33:57;;;;;;;;;0.00;0.00;;;;;-145.09;100.00;59365.97;6290903;22;8758;-81
2024/03/03 07:36:22;;;;;;;;;0.75;0.75;;;;;-145.09;100.00;59365.97;6317487;22;8886;-81
2024/03/03 07:38:48;;;;;;;;;0.00;0.00;;;;;-145.09;100.00;59365.97;6317039;22;8790;-82
2024/03/03 07:41:13;;;;;;;;;0.00;0.00;;;;;-145.09;100.00;59365.97;6289273;22;8879;-80
2024/03/03 07:43:39;;;;;;;;;0.00;0.00;;;;;-145.09;100.00;59365.97;6315874;22;34620;-81
2024/03/03 07:46:04;;;;;;;;;37.00;15.00;;;;;-145.09;100.00;59365.97;6263492;22;9533;-81
2024/03/03 07:48:29;;;;;;;;;0.00;0.00;;;;;-145.09;100.00;59365.97;6317686;22;9561;-82
2024/03/03 07:50:55;;;;;;;;;0.00;0.00;;;;;-145.09;100.00;59365.97;6317651;22;8795;-81
2024/03/03 07:53:21;;;;;;;;;0.00;0.00;;;;;-145.09;100.00;59365.97;6317036;22;34304;-82
2024/03/03 07:55:46;;;;;;;;;0.00;0.00;;;;;-145.09;100.00;59365.97;6317153;22;11374;-82
2024/03/03 07:58:12;;;;;;;;;0.75;0.75;;;;;-145.09;100.00;59365.97;6289599;22;8756;-84
2024/03/03 08:00:38;;;;;;;;;65.50;57.50;;;;;-145.09;100.00;59365.97;6288703;22;8764;-81
2024/03/03 08:03:04;;;;;;;;;0.00;0.00;;;;;-145.09;100.00;59365.97;6317450;22;8768;-80
2024/03/03 08:05:32;;;;;;;;;0.00;0.00;;;;;-145.09;100.00;59365.97;6317375;22;8818;-81
2024/03/03 08:08:00;;;;;;;;;0.00;0.00;;;;;-145.09;100.00;59365.97;6316399;22;8745;-80
2024/03/03 08:10:26;;;;;;;;;0.00;0.00;;;;;-145.09;100.00;59365.97;6317033;22;8804;-79
2024/03/03 08:12:52;;;;;;;;;0.00;0.00;;;;;-145.09;100.00;59365.97;6317206;22;8773;-82
2024/03/03 08:15:18;;;;;;;;;3.00;3.00;;;;;-145.09;100.00;59365.97;6317035;22;8775;-81
2024/03/03 08:17:43;;;;;;;;;0.00;0.00;;;;;-145.09;100.00;59365.97;6316354;22;36138;-83
2024/03/03 08:20:10;;;;;;;;;0.00;0.00;;;;;-145.09;100.00;59365.97;6288608;22;19767;-82
2024/03/03 08:22:43;;;;;;;;;0.00;0.00;;;;;-145.09;100.00;59365.97;6314200;22;8771;-80
2024/03/03 08:25:11;;;;;;;;;0.00;0.00;;;;;-145.09;100.00;59365.97;6315115;22;8757;-80
2024/03/03 08:27:37;;;;;;;;;0.00;0.00;;;;;-145.09;100.00;59365.97;6316375;22;9415;-81
2024/03/03 08:30:05;;;;;;;;;0.00;0.00;;;;;-145.09;100.00;59365.97;6315272;22;30343;-81
2024/03/03 08:32:31;;;;;;;;;0.00;0.00;;;;;-145.09;100.00;59365.97;6316892;22;11386;-81
2024/03/03 08:34:56;;;;;;;;;0.00;0.00;;;;;-145.09;100.00;59365.97;6317101;22;8783;-80
2024/03/03 08:37:22;;;;;;;;;0.00;0.00;;;;;-145.09;100.00;59365.97;6316781;22;8764;-81
2024/03/03 08:39:47;;;;;;;;;0.00;0.00;;;;;-145.09;100.00;59365.97;6315420;22;21472;-82
2024/03/03 08:42:14;;;;;;;;;0.00;0.00;;;;;-145.09;100.00;59365.97;6313672;22;31689;-81
2024/03/03 08:44:39;;;;;;;;;0.00;0.00;;;;;-145.09;100.00;59365.97;6316732;22;12106;-81
2024/03/03 08:47:04;;;;;;;;;0.00;0.00;;;;;-145.09;100.00;59365.97;6315622;22;35085;-81
2024/03/03 08:49:30;;;;;;;;;0.00;0.00;;;;;-145.09;100.00;59365.97;6289243;22;11477;-83
2024/03/03 08:51:57;;;;;;;;;0.00;0.00;;;;;-145.09;100.00;59365.97;6316207;22;8850;-81
2024/03/03 08:54:22;;;;;;;;;0.00;0.00;;;;;-145.09;100.00;59365.97;6317032;22;8781;-80
2024/03/03 08:56:47;;;;;;;;;0.00;0.00;;;;;-145.09;100.00;59365.97;6316700;22;20455;-80
2024/03/03 08:59:13;;;;;;;;;0.00;0.00;;;;;-145.09;100.00;59365.97;6315938;22;34178;-80
2024/03/03 09:01:38;;;;;;;;;0.00;0.00;;;;;-145.09;100.00;59365.97;6317249;22;11523;-80
2024/03/03 09:04:03;;;;;;;;;0.00;0.00;;;;;-145.09;100.00;59365.97;6290064;22;8785;-79
2024/03/03 09:06:29;;;;;;;;;0.00;0.00;;;;;-145.09;100.00;59365.97;6315833;22;8776;-80
2024/03/03 09:08:54;;;;;;;;;0.00;0.00;;;;;-145.09;100.00;59365.97;6315355;22;26618;-80
2024/03/03 09:11:20;;;;;;;;;0.00;0.00;;;;;-145.09;100.00;59365.97;6317141;22;8776;-80
2024/03/03 09:13:45;;;;;;;;;0.00;0.00;;;;;-145.09;100.00;59365.97;6315735;22;29151;-78
2024/03/03 09:16:11;;;;;;;;;0.00;0.00;;;;;-145.09;100.00;59365.97;6315956;22;28357;-80
2024/03/03 09:18:36;;;;;;;;;0.00;0.00;;;;;-145.09;100.00;59365.97;6317299;22;11360;-81
2024/03/03 09:21:08;;;;;;;;;0.50;0.50;;;;;-145.09;100.00;59365.97;6290022;22;8776;-82
2024/03/03 09:23:34;;;;;;;;;0.00;0.00;;;;;-145.09;100.00;59365.97;6316622;22;8761;-80
2024/03/03 09:26:00;;;;;;;;;0.00;0.00;;;;;-145.09;100.00;59365.97;6314916;22;8788;-80
2024/03/03 09:28:25;;;;;;;;;0.00;0.00;;;;;-145.09;100.00;59365.97;6316549;22;8780;-80
2024/03/03 09:30:51;;;;;;;;;0.25;0.25;;;;;-145.09;100.00;59365.97;6317616;22;8772;-79
2024/03/03 09:33:16;;;;;;;;;0.00;0.00;;;;;-145.09;100.00;59365.97;6316890;22;8761;-82
2024/03/03 09:35:42;;;;;;;;;0.00;0.00;;;;;-145.09;100.00;59365.97;6288058;22;21639;-82
2024/03/03 09:38:08;;;;;;;;;0.00;0.00;;;;;-145.09;100.00;59365.97;6290457;22;9322;-82
2024/03/03 09:40:36;;;;;;;;;0.00;0.00;;;;;-145.09;100.00;59365.97;6290182;22;8955;-82
2024/03/03 09:43:03;;;;;;;;;1.00;1.00;;;;;-145.09;100.00;59365.97;6318295;22;9207;-81
2024/03/03 09:45:30;;;;;;;;;0.00;0.00;;;;;-145.09;100.00;59365.97;6290054;22;9019;-82
2024/03/03 09:47:56;;;;;;;;;0.00;0.00;;;;;-145.09;100.00;59365.97;6290146;22;8764;-82
2024/03/03 09:50:22;;;;;;;;;0.00;0.00;;;;;-145.09;100.00;59365.97;6290277;22;8862;-80
2024/03/03 09:52:51;;;;;;;;;0.00;0.00;;;;;-145.09;100.00;59365.97;6288156;22;36006;-83
2024/03/03 09:55:16;;;;;;;;;0.00;0.00;;;;;-145.09;100.00;59365.97;6317406;22;8713;-81
2024/03/03 09:57:42;;;;;;;;;0.00;0.00;;;;;-145.09;100.00;59365.97;6289317;22;37277;-81
2024/03/03 10:00:07;;;;;;;;;0.67;0.67;;;;;-145.09;100.00;59365.97;6290629;22;8764;-82
2024/03/03 10:02:34;;;;;;;;;0.00;0.00;;;;;-145.09;100.00;59365.97;6318200;22;9952;-82
2024/03/03 10:05:01;;;;;;;;;0.00;0.00;;;;;-145.09;100.00;59365.97;6290971;22;8756;-82
2024/03/03 10:07:31;;;;;;;;;0.00;0.00;;;;;-145.09;100.00;59365.97;6290873;22;8736;-82
2024/03/03 10:10:02;;;;;;;;;0.00;0.00;;;;;-145.09;100.00;59365.97;6317057;22;8841;-80
2024/03/03 10:12:30;;;;;;;;;0.00;0.00;;;;;-145.09;100.00;59365.97;6317395;22;8764;-82
2024/03/03 10:14:56;;;;;;;;;0.00;0.00;;;;;-145.09;100.00;59365.97;6290521;22;8745;-82
2024/03/03 10:17:21;;;;;;;;;3.00;3.00;;;;;-145.09;100.00;59365.97;6289742;22;8756;-81
2024/03/03 10:19:47;;;;;;;;;0.00;0.00;;;;;-145.09;100.00;59365.97;6317021;22;28477;-82
2024/03/03 10:22:19;;;;;;;;;1.00;1.00;;;;;-145.09;100.00;59365.97;6290338;22;11386;-81
2024/03/03 10:24:45;;;;;;;;;0.00;0.00;;;;;-145.09;100.00;59365.97;6290135;22;8779;-81
2024/03/03 10:27:16;;;;;;;;;0.00;0.00;;;;;-145.09;100.00;59365.97;6290458;22;8792;-82
2024/03/03 10:29:43;;;;;;;;;5.00;5.00;;;;;-145.09;100.00;59365.97;6288899;22;8769;-82
2024/03/03 10:32:12;;;;;;;;;3.00;3.00;;;;;-145.09;100.00;59365.97;6290491;22;8749;-82
2024/03/03 10:34:38;;;;;;;;;0.00;0.00;;;;;-145.09;100.00;59365.97;6316950;22;8733;-81
2024/03/03 10:37:05;;;;;;;;;0.00;0.00;;;;;-145.09;100.00;59365.97;6290759;22;8773;-82
2024/03/03 10:39:35;;;;;;;;;1.00;1.00;;;;;-145.09;100.00;59365.97;6317796;22;8764;-82
2024/03/03 10:42:00;;;;;;;;;0.00;0.00;;;;;-145.09;100.00;59365.97;6317899;22;8733;-82
2024/03/03 10:44:26;;;;;;;;;0.00;0.00;;;;;-145.09;100.00;59365.97;6290917;22;8761;-81
2024/03/03 10:46:51;;;;;;;;;3.00;3.00;;;;;-145.09;100.00;59365.97;6316063;22;9556;-82
2024/03/03 10:49:17;;;;;;;;;0.00;0.00;;;;;-145.09;100.00;59365.97;6317854;22;8798;-82
2024/03/03 10:51:45;;;;;;;;;0.00;0.00;;;;;-145.09;100.00;59365.97;6316962;22;8769;-82
2024/03/03 10:54:11;;;;;;;;;0.00;0.00;;;;;-145.09;100.00;59365.97;6318105;22;8757;-81
2024/03/03 10:56:37;;;;;;;;;0.00;0.00;;;;;-145.09;100.00;59365.97;6316122;22;11790;-82
2024/03/03 10:59:04;;;;;;;;;0.00;0.00;;;;;-145.09;100.00;59365.97;6290924;22;8741;-82
2024/03/03 11:01:31;;;;;;;;;0.00;0.00;;;;;-145.09;100.00;59365.97;6290493;22;8761;-82
2024/03/03 11:03:58;;;;;;;;;0.00;0.00;;;;;-145.09;100.00;59365.97;6290397;22;8733;-81
2024/03/03 11:06:24;;;;;;;;;0.00;0.00;;;;;-145.09;100.00;59365.97;6288964;22;34482;-82
2024/03/03 11:08:50;;;;;;;;;1.50;0.00;;;;;-145.09;100.00;59365.97;6264104;22;8749;-84
2024/03/03 11:11:18;;;;;;;;;0.00;0.00;;;;;-145.09;100.00;59365.97;6290944;22;8780;-83
2024/03/03 11:14:06;;;;;;;;;0.00;0.00;;;;;-145.09;100.00;59365.97;6317813;22;8767;-82
2024/03/03 11:16:32;;;;;;;;;0.00;0.00;;;;;-145.09;100.00;59365.97;6300245;22;8756;-83
2024/03/03 11:19:13;;;;;;;;;0.00;0.00;;;;;-145.09;100.00;59365.97;6289534;22;36206;-83
2024/03/03 11:21:41;;;;;;;;;0.00;0.00;;;;;-145.09;100.00;59365.97;6290708;22;8740;-83
2024/03/03 11:24:10;;;;;;;;;0.00;0.00;;;;;-145.09;100.00;59365.97;6287362;22;8747;-82
2024/03/03 11:26:43;;;;;;;;;0.00;0.00;;;;;-145.09;100.00;59365.97;6290658;22;8767;-83
2024/03/03 11:29:09;;;;;;;;;0.00;0.00;;;;;-145.09;100.00;59365.97;6290125;22;8765;-82
2024/03/03 11:31:35;;;;;;;;;0.00;0.00;;;;;-145.09;100.00;59365.97;6290631;22;8753;-83
2024/03/03 11:34:01;;;;;;;;;0.00;0.00;;;;;-145.09;100.00;59365.97;6290578;22;8768;-82
2024/03/03 11:36:27;;;;;;;;;0.00;0.00;;;;;-145.09;100.00;59365.97;6289423;22;31301;-82
2024/03/03 11:38:56;;;;;;;;;0.00;0.00;;;;;-145.09;100.00;59365.97;6290247;22;8745;-83
2024/03/03 11:41:22;;;;;;;;;0.00;0.00;;;;;-145.09;100.00;59365.97;6317551;22;8796;-82
2024/03/03 11:43:48;;;;;;;;;0.00;0.00;;;;;-145.09;100.00;59365.97;6316548;22;34128;-82
2024/03/03 11:46:48;;;;;;;;;0.00;0.00;;;;;-145.09;100.00;59365.97;6317256;22;10005;-83